createdAt,value
2018-02-10T00:01:41.299Z,80.60
2018-02-10T00:04:08.936Z,65.12
2018-02-10T00:06:34.914Z,61.40
2018-02-10T00:09:01.439Z,77.63
2018-02-10T00:11:27.799Z,72.35
2018-02-10T00:13:57.888Z,74.87
2018-02-10T00:16:32.110Z,81.57
2018-02-10T00:18:59.796Z,84.95
2018-02-10T00:21:25.846Z,90.93
2018-02-10T00:23:52.940Z,79.78
2018-02-10T00:26:19.012Z,72.37
2018-02-10T00:28:46.618Z,70.75
2018-02-10T00:31:13.202Z,83.22
2018-02-10T00:33:39.436Z,75.78
2018-02-10T00:36:06.038Z,67.78
2018-02-10T00:38:32.071Z,74.55
2018-02-10T00:40:58.396Z,68.15
2018-02-10T00:43:25.368Z,75.18
2018-02-10T00:45:52.264Z,71.97
2018-02-10T00:48:20.130Z,73.75
2018-02-10T00:50:46.364Z,72.35
2018-02-10T00:53:14.160Z,115.43
2018-02-10T00:55:40.247Z,82.65
2018-02-10T00:58:06.379Z,101.70
2018-02-10T01:00:32.511Z,86.65
2018-02-10T01:03:00.735Z,88.78
2018-02-10T01:05:27.715Z,70.80
2018-02-10T01:07:57.238Z,72.35
2018-02-10T01:10:25.395Z,81.47
2018-02-10T01:15:23.770Z,78.20
2018-02-10T01:17:50.538Z,76.75
2018-02-10T01:20:16.598Z,73.12
2018-02-10T01:22:43.938Z,70.70
2018-02-10T01:25:10.134Z,74.05
2018-02-10T01:27:36.271Z,78.97
2018-02-10T01:30:02.960Z,67.10
2018-02-10T01:32:33.337Z,70.35
2018-02-10T01:35:00.324Z,80.25
2018-02-10T01:37:26.386Z,75.50
2018-02-10T01:39:56.320Z,80.80
2018-02-10T01:42:23.055Z,72.05
2018-02-10T01:44:49.158Z,73.35
2018-02-10T01:47:16.232Z,71.20
2018-02-10T01:49:42.282Z,70.43
2018-02-10T01:52:08.318Z,76.32
2018-02-10T01:54:34.346Z,73.75
2018-02-10T01:57:02.314Z,70.97
2018-02-10T01:59:29.022Z,75.55
2018-02-10T02:01:55.923Z,75.78
2018-02-10T02:06:53.508Z,68.57
2018-02-10T02:09:19.531Z,74.35
2018-02-10T02:11:45.811Z,77.70
2018-02-10T02:14:12.505Z,83.57
2018-02-10T02:16:38.542Z,82.35
2018-02-10T02:19:04.567Z,75.78
2018-02-10T02:21:30.693Z,71.80
2018-02-10T02:23:57.067Z,69.03
2018-02-10T02:26:23.151Z,77.22
2018-02-10T02:28:49.410Z,80.05
2018-02-10T02:31:17.034Z,78.62
2018-02-10T02:33:43.057Z,74.37
2018-02-10T02:36:09.822Z,72.80
2018-02-10T02:38:35.956Z,77.53
2018-02-10T02:41:02.306Z,73.20
2018-02-10T02:43:28.422Z,83.60
2018-02-10T02:45:54.520Z,80.57
2018-02-10T02:48:20.669Z,84.30
2018-02-10T02:50:47.668Z,70.95
2018-02-10T02:53:13.718Z,79.85
2018-02-10T02:55:39.817Z,77.80
2018-02-10T02:58:05.870Z,89.75
2018-02-10T03:00:31.959Z,69.53
2018-02-10T03:02:58.727Z,77.15
2018-02-10T03:05:24.790Z,73.32
2018-02-10T03:07:51.092Z,82.07
2018-02-10T03:10:17.183Z,70.78
2018-02-10T03:12:43.442Z,78.32
2018-02-10T03:15:09.971Z,73.50
2018-02-10T03:17:37.073Z,79.47
2018-02-10T03:20:03.295Z,71.55
2018-02-10T03:22:29.278Z,77.90
2018-02-10T03:24:55.386Z,79.83
2018-02-10T03:27:21.930Z,75.55
2018-02-10T03:29:48.518Z,65.28
2018-02-10T03:32:16.355Z,73.45
2018-02-10T03:34:42.444Z,77.47
2018-02-10T03:37:08.549Z,82.35
2018-02-10T03:39:34.592Z,85.95
2018-02-10T03:42:00.690Z,74.35
2018-02-10T03:44:27.456Z,76.87
2018-02-10T03:46:53.529Z,78.43
2018-02-10T03:49:19.714Z,79.50
2018-02-10T03:51:45.745Z,75.80
2018-02-10T03:54:13.604Z,79.75
2018-02-10T03:56:39.627Z,71.57
2018-02-10T03:59:05.645Z,69.75
2018-02-10T04:01:32.282Z,68.70
2018-02-10T04:03:58.346Z,82.10
2018-02-10T04:06:24.448Z,74.93
2018-02-10T04:08:50.564Z,78.07
2018-02-10T04:11:16.573Z,85.50
2018-02-10T04:13:42.706Z,72.85
2018-02-10T04:16:09.693Z,77.68
2018-02-10T04:18:35.766Z,83.78
2018-02-10T04:21:01.772Z,77.12
2018-02-10T04:23:27.856Z,73.07
2018-02-10T04:25:54.770Z,77.15
2018-02-10T04:28:20.786Z,82.12
2018-02-10T04:30:47.372Z,70.78
2018-02-10T04:33:13.450Z,75.62
2018-02-10T04:35:40.285Z,74.05
2018-02-10T04:38:06.958Z,78.03
2018-02-10T04:40:32.952Z,75.80
2018-02-10T04:42:58.979Z,77.50
2018-02-10T04:45:25.082Z,79.18
2018-02-10T04:47:51.060Z,88.47
2018-02-10T04:50:17.107Z,78.43
2018-02-10T04:52:43.158Z,86.43
2018-02-10T04:55:09.432Z,86.18
2018-02-10T04:57:35.596Z,82.60
2018-02-10T05:00:01.904Z,81.40
2018-02-10T05:02:27.896Z,72.70
2018-02-10T05:04:53.964Z,85.97
2018-02-10T05:07:20.088Z,76.45
2018-02-10T05:09:46.110Z,82.90
2018-02-10T05:12:12.115Z,80.50
2018-02-10T05:14:38.129Z,85.78
2018-02-10T05:17:05.183Z,88.78
2018-02-10T05:19:31.212Z,80.25
2018-02-10T05:21:57.233Z,78.30
2018-02-10T05:24:23.483Z,83.70
2018-02-10T05:26:50.459Z,83.53
2018-02-10T05:29:16.851Z,79.95
2018-02-10T05:31:43.114Z,72.60
2018-02-10T05:34:09.956Z,80.50
2018-02-10T05:36:35.986Z,83.50
2018-02-10T05:39:02.214Z,85.30
2018-02-10T05:41:28.539Z,80.57
2018-02-10T05:43:55.130Z,73.10
2018-02-10T05:46:23.099Z,77.55
2018-02-10T05:48:49.150Z,70.57
2018-02-10T05:51:16.075Z,71.90
2018-02-10T05:53:43.842Z,74.50
2018-02-10T05:56:10.484Z,82.32
2018-02-10T05:58:36.625Z,83.28
2018-02-10T06:01:03.263Z,73.22
2018-02-10T06:03:29.354Z,79.43
2018-02-10T06:05:56.168Z,86.32
2018-02-10T06:08:22.164Z,85.87
2018-02-10T06:10:48.971Z,88.53
2018-02-10T06:13:14.934Z,70.85
2018-02-10T06:15:40.942Z,81.63
2018-02-10T06:18:07.798Z,79.60
2018-02-10T06:20:34.933Z,78.70
2018-02-10T06:23:01.022Z,78.07
2018-02-10T06:25:27.027Z,78.53
2018-02-10T06:27:53.148Z,90.47
2018-02-10T06:30:19.196Z,74.93
2018-02-10T06:32:45.277Z,75.82
2018-02-10T06:35:11.451Z,79.53
2018-02-10T06:37:38.427Z,79.03
2018-02-10T06:40:04.558Z,76.20
2018-02-10T06:42:31.348Z,69.45
2018-02-10T06:44:57.509Z,74.15
2018-02-10T06:47:23.575Z,75.40
2018-02-10T06:49:50.970Z,84.78
2018-02-10T06:52:17.809Z,70.40
2018-02-10T06:54:44.150Z,77.15
2018-02-10T06:57:12.985Z,74.75
2018-02-10T06:59:39.834Z,77.00
2018-02-10T07:02:05.913Z,77.65
2018-02-10T07:04:32.148Z,71.30
2018-02-10T07:06:58.720Z,75.15
2018-02-10T07:09:25.159Z,75.53
2018-02-10T07:11:51.564Z,74.87
2018-02-10T07:14:17.574Z,74.22
2018-02-10T07:16:43.582Z,70.13
2018-02-10T07:19:10.022Z,75.10
2018-02-10T07:21:36.262Z,77.75
2018-02-10T07:24:02.526Z,77.15
2018-02-10T07:26:29.338Z,71.12
2018-02-10T07:28:55.719Z,76.12
2018-02-10T07:31:21.914Z,78.82
2018-02-10T07:33:48.066Z,73.62
2018-02-10T07:36:14.438Z,73.25
2018-02-10T07:38:40.549Z,89.40
2018-02-10T07:41:08.897Z,79.15
2018-02-10T07:43:34.981Z,76.00
2018-02-10T07:46:01.082Z,72.72
2018-02-10T07:48:27.157Z,76.85
2018-02-10T07:53:25.020Z,79.90
2018-02-10T07:55:53.215Z,75.15
2018-02-10T07:58:19.581Z,81.68
2018-02-10T08:00:45.741Z,69.80
2018-02-10T08:03:12.007Z,79.12
2018-02-10T08:05:38.890Z,74.72
2018-02-10T08:08:04.947Z,80.15
2018-02-10T08:10:31.646Z,76.35
2018-02-10T08:12:59.605Z,73.75
2018-02-10T08:15:25.704Z,74.05
2018-02-10T08:17:52.463Z,85.35
2018-02-10T08:20:19.806Z,69.18
2018-02-10T08:22:46.900Z,72.07
2018-02-10T08:25:14.029Z,71.85
2018-02-10T08:27:40.288Z,69.05
2018-02-10T08:30:07.402Z,76.00
2018-02-10T08:32:33.639Z,66.65
2018-02-10T08:34:59.965Z,73.15
2018-02-10T08:37:26.256Z,69.90
2018-02-10T08:39:52.982Z,73.03
2018-02-10T08:42:19.947Z,71.30
2018-02-10T08:44:46.579Z,72.15
2018-02-10T08:47:13.601Z,67.40
2018-02-10T08:49:39.664Z,61.67
2018-02-10T08:52:06.418Z,73.65
2018-02-10T08:54:32.549Z,65.03
2018-02-10T08:56:58.561Z,59.67
2018-02-10T08:59:27.066Z,56.23
2018-02-10T09:01:53.090Z,62.25
2018-02-10T09:04:22.629Z,56.58
2018-02-10T09:06:49.323Z,57.25
2018-02-10T09:09:15.320Z,56.78
2018-02-10T09:11:41.365Z,54.73
2018-02-10T09:14:08.407Z,55.88
2018-02-10T09:16:34.572Z,67.00
2018-02-10T09:19:01.847Z,69.43
2018-02-10T09:21:27.920Z,68.12
2018-02-10T09:23:54.004Z,54.80
2018-02-10T09:26:20.061Z,53.95
2018-02-10T09:28:46.492Z,54.95
2018-02-10T09:31:14.838Z,62.88
2018-02-10T09:33:41.652Z,52.85
2018-02-10T09:36:07.633Z,56.33
2018-02-10T09:38:33.718Z,50.33
2018-02-10T09:40:59.740Z,45.78
2018-02-10T09:43:25.735Z,48.50
2018-02-10T09:45:52.215Z,55.97
2018-02-10T09:48:20.264Z,50.28
2018-02-10T09:53:32.011Z,49.38
2018-02-10T09:55:58.098Z,48.08
2018-02-10T09:58:24.152Z,50.65
2018-02-10T10:00:50.409Z,45.67
2018-02-10T10:03:16.448Z,53.33
2018-02-10T10:05:43.306Z,46.97
2018-02-10T10:08:09.355Z,45.38
2018-02-10T10:10:35.484Z,45.67
2018-02-10T10:13:03.668Z,48.72
2018-02-10T10:15:29.811Z,44.80
2018-02-10T10:17:56.189Z,43.90
2018-02-10T10:20:22.519Z,50.00
2018-02-10T10:22:49.340Z,45.85
2018-02-10T10:25:16.452Z,43.58
2018-02-10T10:27:42.471Z,44.17
2018-02-10T10:30:08.581Z,47.57
2018-02-10T10:35:07.708Z,48.42
2018-02-10T10:37:36.462Z,46.00
2018-02-10T10:40:04.264Z,47.95
2018-02-10T10:42:30.505Z,43.75
2018-02-10T10:44:56.639Z,42.70
2018-02-10T10:47:23.486Z,45.35
2018-02-10T10:49:52.886Z,44.55
2018-02-10T10:52:23.005Z,44.95
2018-02-10T10:54:52.365Z,49.25
2018-02-10T10:57:20.856Z,40.88
2018-02-10T10:59:49.123Z,43.15
2018-02-10T11:02:25.428Z,48.97
2018-02-10T11:04:52.944Z,41.20
2018-02-10T11:07:22.971Z,40.80
2018-02-10T11:09:51.883Z,48.40
2018-02-10T11:12:18.647Z,45.03
2018-02-10T11:14:44.714Z,40.75
2018-02-10T11:17:16.145Z,46.65
2018-02-10T11:19:43.932Z,40.15
2018-02-10T11:22:13.962Z,35.92
2018-02-10T11:24:39.938Z,38.15
2018-02-10T11:27:06.900Z,39.50
2018-02-10T11:29:32.916Z,38.88
2018-02-10T11:31:59.051Z,43.67
2018-02-10T11:34:26.410Z,39.95
2018-02-10T11:36:52.494Z,38.95
2018-02-10T11:39:23.297Z,41.00
2018-02-10T11:41:50.275Z,39.60
2018-02-10T11:44:19.863Z,34.30
2018-02-10T11:46:46.380Z,40.70
2018-02-10T11:49:13.413Z,38.17
2018-02-10T11:51:39.621Z,33.22
2018-02-10T11:54:06.428Z,45.00
2018-02-10T11:56:34.759Z,41.75
2018-02-10T11:59:01.190Z,36.25
2018-02-10T12:01:28.434Z,46.05
2018-02-10T12:03:57.598Z,45.53
2018-02-10T12:06:29.804Z,33.03
2018-02-10T12:08:55.844Z,36.55
2018-02-10T12:11:22.084Z,35.13
2018-02-10T12:13:48.151Z,39.88
2018-02-10T12:19:00.691Z,38.03
2018-02-10T12:21:26.864Z,33.58
2018-02-10T12:23:54.249Z,32.40
2018-02-10T12:26:20.411Z,30.48
2018-02-10T12:28:53.088Z,35.33
2018-02-10T12:31:22.480Z,37.90
2018-02-10T12:33:52.200Z,45.10
2018-02-10T12:36:32.255Z,37.78
2018-02-10T12:39:00.656Z,31.73
2018-02-10T12:41:26.737Z,37.35
2018-02-10T12:43:53.725Z,38.55
2018-02-10T12:46:21.587Z,32.33
2018-02-10T12:49:02.387Z,31.70
2018-02-10T12:51:29.386Z,33.13
2018-02-10T12:56:37.987Z,25.67
2018-02-10T12:59:07.917Z,28.52
2018-02-10T13:04:07.265Z,30.48
2018-02-10T13:09:07.007Z,30.00
2018-02-10T13:11:33.418Z,27.52
2018-02-10T13:13:59.876Z,26.65
2018-02-10T13:24:17.090Z,26.00
2018-02-10T13:31:58.294Z,27.65
2018-02-10T13:39:33.350Z,27.85
2018-02-10T13:42:01.375Z,25.15
2018-02-10T13:44:30.084Z,23.62
2018-02-10T13:46:58.792Z,23.45
2018-02-10T13:49:34.032Z,26.27
2018-02-10T13:52:02.502Z,22.90
2018-02-10T13:54:31.588Z,22.73
2018-02-10T13:57:01.712Z,27.92
2018-02-10T13:59:33.722Z,24.40
2018-02-10T14:01:59.840Z,25.48
2018-02-10T14:04:28.536Z,25.33
2018-02-10T14:09:32.245Z,21.02
2018-02-10T14:14:38.215Z,23.35
2018-02-10T14:17:12.831Z,22.25
2018-02-10T14:22:12.884Z,23.85
2018-02-10T14:27:10.532Z,22.90
2018-02-10T14:29:37.249Z,18.37
2018-02-10T14:34:40.285Z,22.70
2018-02-10T14:42:13.284Z,18.40
2018-02-10T14:44:39.974Z,18.55
2018-02-10T14:47:07.023Z,17.35
2018-02-10T14:52:09.031Z,16.87
2018-02-10T14:54:43.316Z,24.80
2018-02-10T14:57:12.190Z,21.67
2018-02-10T14:59:40.823Z,21.52
2018-02-10T15:02:09.227Z,24.87
2018-02-10T15:04:36.177Z,20.20
2018-02-10T15:07:05.532Z,20.27
2018-02-10T15:09:34.153Z,20.87
2018-02-10T15:12:06.407Z,21.60
2018-02-10T15:14:32.675Z,24.70
2018-02-10T15:16:59.976Z,18.10
2018-02-10T15:19:28.189Z,17.90
2018-02-10T15:21:58.488Z,18.73
2018-02-10T15:27:03.792Z,23.60
2018-02-10T15:29:42.468Z,17.17
2018-02-10T15:32:22.183Z,20.10
2018-02-10T15:34:59.924Z,20.35
2018-02-10T15:37:27.152Z,21.33
2018-02-10T15:39:53.843Z,20.98
2018-02-10T15:42:20.649Z,18.33
2018-02-10T15:44:46.719Z,19.02
2018-02-10T15:47:16.600Z,17.85
2018-02-10T15:49:42.599Z,21.05
2018-02-10T15:54:41.641Z,19.65
2018-02-10T15:59:45.156Z,21.40
2018-02-10T16:02:13.458Z,22.13
2018-02-10T16:04:39.855Z,25.00
2018-02-10T16:07:09.020Z,23.65
2018-02-10T16:09:35.194Z,23.40
2018-02-10T16:12:04.499Z,22.48
2018-02-10T16:14:31.050Z,22.90
2018-02-10T16:16:58.148Z,26.60
2018-02-10T16:19:25.305Z,21.00
2018-02-10T16:21:51.885Z,23.77
2018-02-10T16:24:18.732Z,23.65
2018-02-10T16:29:24.064Z,27.77
2018-02-10T16:31:53.583Z,26.30
2018-02-10T16:34:21.934Z,22.27
2018-02-10T16:36:49.738Z,28.73
2018-02-10T16:39:16.558Z,24.37
2018-02-10T16:41:43.909Z,23.30
2018-02-10T16:46:49.944Z,27.85
2018-02-10T16:49:23.896Z,29.65
2018-02-10T16:54:25.670Z,28.98
2018-02-10T16:56:53.598Z,27.08
2018-02-10T16:59:26.585Z,25.92
2018-02-10T17:01:52.708Z,24.20
2018-02-10T17:04:21.265Z,21.02
2018-02-10T17:06:51.431Z,22.80
2018-02-10T17:09:19.919Z,26.85
2018-02-10T17:11:52.989Z,26.42
2018-02-10T17:14:20.879Z,22.73
2018-02-10T17:16:47.876Z,28.12
2018-02-10T17:19:24.099Z,29.80
2018-02-10T17:24:26.024Z,26.92
2018-02-10T17:26:53.289Z,26.02
2018-02-10T17:29:22.851Z,28.83
2018-02-10T17:31:51.789Z,25.10
2018-02-10T17:34:18.102Z,26.25
2018-02-10T17:36:44.900Z,35.45
2018-02-10T17:39:15.023Z,27.40
2018-02-10T17:41:44.064Z,30.75
2018-02-10T17:44:11.015Z,30.12
2018-02-10T17:46:37.047Z,28.02
2018-02-10T17:51:45.016Z,33.97
2018-02-10T17:54:14.519Z,29.77
2018-02-10T17:59:29.819Z,32.40
2018-02-10T18:01:57.320Z,27.35
2018-02-10T18:06:55.601Z,26.40
2018-02-10T18:09:27.421Z,31.20
2018-02-10T18:14:29.939Z,29.55
2018-02-10T18:19:35.730Z,33.42
2018-02-10T18:24:43.994Z,33.05
2018-02-10T18:29:43.560Z,31.33
2018-02-10T18:32:13.333Z,32.10
2018-02-10T18:34:42.025Z,32.20
2018-02-10T18:39:40.155Z,34.30
2018-02-10T18:44:39.209Z,33.63
2018-02-10T18:47:08.207Z,35.70
2018-02-10T18:49:36.247Z,31.42
2018-02-10T18:52:02.431Z,33.60
2018-02-10T18:54:29.900Z,30.10
2018-02-10T18:56:55.892Z,36.33
2018-02-10T18:59:22.012Z,32.45
2018-02-10T19:01:48.288Z,31.98
2018-02-10T19:04:16.012Z,33.80
2018-02-10T19:06:43.258Z,29.15
2018-02-10T19:09:11.438Z,32.28
2018-02-10T19:11:38.576Z,35.60
2018-02-10T19:16:37.085Z,31.77
2018-02-10T19:19:05.484Z,34.40
2018-02-10T19:21:32.171Z,35.10
2018-02-10T19:23:59.380Z,37.97
2018-02-10T19:26:25.546Z,32.67
2018-02-10T19:28:51.893Z,29.65
2018-02-10T19:31:18.624Z,37.53
2018-02-10T19:33:46.870Z,34.53
2018-02-10T19:36:12.834Z,35.35
2018-02-10T19:38:44.281Z,32.53
2018-02-10T19:41:11.041Z,37.55
2018-02-10T19:43:37.251Z,31.27
2018-02-10T19:46:04.884Z,33.33
2018-02-10T19:48:33.143Z,32.85
2018-02-10T19:50:59.311Z,35.63
2018-02-10T19:53:27.585Z,39.08
2018-02-10T19:55:53.841Z,30.27
2018-02-10T19:58:20.882Z,35.28
2018-02-10T20:00:47.884Z,38.58
2018-02-10T20:03:17.829Z,30.90
2018-02-10T20:05:47.152Z,34.95
2018-02-10T20:08:13.946Z,36.95
2018-02-10T20:10:40.622Z,35.38
2018-02-10T20:13:10.768Z,34.25
2018-02-10T20:15:37.968Z,40.53
2018-02-10T20:18:04.806Z,30.00
2018-02-10T20:20:35.137Z,38.00
2018-02-10T20:23:05.829Z,35.03
2018-02-10T20:25:31.921Z,39.65
2018-02-10T20:27:57.916Z,36.85
2018-02-10T20:30:24.994Z,34.20
2018-02-10T20:32:58.192Z,38.22
2018-02-10T20:35:26.534Z,40.65
2018-02-10T20:37:54.420Z,33.90
2018-02-10T20:40:23.203Z,36.20
2018-02-10T20:42:54.577Z,36.42
2018-02-10T20:45:21.932Z,36.25
2018-02-10T20:47:52.510Z,38.63
2018-02-10T20:50:22.535Z,38.50
2018-02-10T20:52:48.675Z,42.85
2018-02-10T20:55:15.775Z,40.20
2018-02-10T20:57:42.792Z,41.10
2018-02-10T21:00:14.177Z,37.28
2018-02-10T21:02:42.865Z,35.97
2018-02-10T21:07:46.316Z,38.08
2018-02-10T21:10:13.532Z,39.22
2018-02-10T21:15:14.358Z,42.62
2018-02-10T21:17:43.008Z,40.12
2018-02-10T21:20:09.926Z,39.25
2018-02-10T21:22:36.076Z,38.88
2018-02-10T21:25:03.275Z,39.85
2018-02-10T21:27:30.441Z,42.95
2018-02-10T21:29:56.553Z,39.38
2018-02-10T21:32:23.035Z,38.95
2018-02-10T21:34:50.903Z,51.17
2018-02-10T21:37:18.382Z,41.25
2018-02-10T21:39:47.765Z,40.50
2018-02-10T21:42:14.186Z,43.03
2018-02-10T21:44:44.776Z,40.10
2018-02-10T21:49:46.922Z,38.67
2018-02-10T21:52:17.377Z,37.60
2018-02-10T21:54:47.109Z,37.80
2018-02-10T21:57:13.241Z,39.35
2018-02-10T21:59:41.489Z,39.03
2018-02-10T22:07:11.703Z,41.10
2018-02-10T22:14:50.857Z,38.00
2018-02-10T22:49:30.501Z,37.55
2018-02-10T22:51:57.236Z,40.90
2018-02-10T22:54:23.254Z,35.88
2018-02-10T22:56:50.352Z,39.95
2018-02-10T22:59:16.399Z,37.58
2018-02-10T23:01:42.978Z,43.85
2018-02-10T23:04:09.097Z,30.45
2018-02-10T23:06:35.165Z,36.95
2018-02-10T23:09:01.150Z,33.13
2018-02-10T23:11:27.632Z,33.10
2018-02-10T23:13:54.619Z,36.03
2018-02-10T23:16:20.676Z,36.22
2018-02-10T23:18:47.006Z,33.75
2018-02-10T23:21:13.044Z,33.35
2018-02-10T23:23:39.080Z,31.75
2018-02-10T23:26:05.825Z,31.25
2018-02-10T23:28:32.490Z,35.55
2018-02-10T23:30:58.953Z,29.30
2018-02-10T23:33:25.105Z,34.78
2018-02-10T23:35:51.659Z,38.47
2018-02-10T23:38:17.677Z,31.80
2018-02-10T23:40:44.001Z,27.80
2018-02-10T23:43:10.051Z,31.80
2018-02-10T23:45:36.134Z,29.27
2018-02-10T23:48:02.197Z,25.67
2018-02-10T23:50:28.511Z,29.83
2018-02-10T23:52:55.426Z,32.88
2018-02-10T23:55:21.860Z,26.42
2018-02-10T23:57:47.864Z,21.75
